Time;durP1;ratioP1;P1;durP2;ratioP2;P2;SDS_P1;SDS_P2;PMS_P1;PMS_P2;Temp;Humidity;BMP_temperature;BMP_pressure;BME280_temperature;BME280_humidity;BME280_pressure;Samples;Min_cycle;Max_cycle;Signal;HPM_P1;HPM_P2
2023/01/01 00:01:16;;;;;;;19.63;9.23;;;16.70;99.90;;;;;;5024896;28;20600;-82
2023/01/01 00:03:43;;;;;;;12.60;7.53;;;16.60;99.90;;;;;;5027055;28;20576;-82
2023/01/01 00:06:12;;;;;;;13.13;7.37;;;16.60;99.90;;;;;;5025924;28;20454;-81
2023/01/01 00:08:39;;;;;;;11.33;7.13;;;16.70;99.90;;;;;;5024591;28;20457;-81
2023/01/01 00:11:08;;;;;;;15.63;7.90;;;16.70;99.90;;;;;;5042755;23;20501;-78
2023/01/01 00:13:36;;;;;;;13.53;7.10;;;16.70;99.90;;;;;;5033441;28;20455;-79
2023/01/01 00:16:06;;;;;;;14.53;8.23;;;16.70;99.90;;;;;;5033394;28;20455;-80
2023/01/01 00:18:33;;;;;;;12.77;7.30;;;16.70;99.90;;;;;;5034024;28;20456;-80
2023/01/01 00:21:04;;;;;;;10.80;8.60;;;16.70;99.90;;;;;;5034891;28;20511;-79
2023/01/01 00:23:31;;;;;;;10.87;7.97;;;16.70;99.90;;;;;;5034479;28;20460;-79
2023/01/01 00:25:59;;;;;;;20.70;7.40;;;16.70;99.90;;;;;;5031405;28;20462;-79
2023/01/01 00:28:25;;;;;;;12.90;7.40;;;16.70;99.90;;;;;;5035793;28;21191;-78
2023/01/01 00:30:52;;;;;;;13.57;8.10;;;16.70;99.90;;;;;;5036345;28;20525;-79
2023/01/01 00:33:20;;;;;;;15.23;9.70;;;16.60;99.90;;;;;;5035389;28;20523;-79
2023/01/01 00:35:47;;;;;;;21.43;12.93;;;16.60;99.90;;;;;;5029358;28;20458;-79
2023/01/01 00:38:14;;;;;;;15.70;11.00;;;16.50;99.90;;;;;;5015864;28;20456;-79
2023/01/01 00:40:41;;;;;;;15.70;11.03;;;16.40;99.90;;;;;;5033043;28;20546;-79
2023/01/01 00:43:07;;;;;;;17.77;11.17;;;16.40;99.90;;;;;;5035660;28;20526;-78
2023/01/01 00:45:34;;;;;;;18.40;11.60;;;16.40;99.90;;;;;;5028230;28;20457;-79
2023/01/01 00:48:01;;;;;;;16.40;10.80;;;16.30;99.90;;;;;;5013370;28;20546;-78
2023/01/01 00:50:29;;;;;;;19.60;12.43;;;16.20;99.90;;;;;;5031894;28;20475;-78
2023/01/01 00:52:56;;;;;;;20.50;12.43;;;16.30;99.90;;;;;;5031707;28;20445;-78
2023/01/01 00:55:23;;;;;;;17.60;12.43;;;16.30;99.90;;;;;;5031849;28;20449;-78
2023/01/01 00:57:49;;;;;;;19.90;15.00;;;16.30;99.90;;;;;;5035030;28;20455;-78
2023/01/01 01:00:17;;;;;;;18.10;12.07;;;16.30;99.90;;;;;;5037232;28;20480;-78
2023/01/01 01:02:44;;;;;;;18.63;12.13;;;16.30;99.90;;;;;;5036845;28;20466;-78
2023/01/01 01:05:10;;;;;;;19.80;11.77;;;16.30;99.90;;;;;;5031218;28;20448;-78
2023/01/01 01:07:39;;;;;;;15.57;12.07;;;16.30;99.90;;;;;;5017126;28;20456;-79
2023/01/01 01:10:08;;;;;;;16.17;10.47;;;16.30;99.90;;;;;;5015895;28;20954;-79
2023/01/01 01:12:35;;;;;;;14.37;9.93;;;16.30;99.90;;;;;;5015938;28;20950;-79
2023/01/01 01:15:03;;;;;;;13.33;10.33;;;16.30;99.90;;;;;;5019284;28;20457;-79
2023/01/01 01:17:30;;;;;;;15.90;9.80;;;16.30;99.90;;;;;;5035881;28;20464;-79
2023/01/01 01:19:56;;;;;;;13.57;9.10;;;16.20;99.90;;;;;;5035407;28;20458;-79
2023/01/01 01:22:23;;;;;;;12.47;8.30;;;16.20;99.90;;;;;;5035568;28;20499;-79
2023/01/01 01:24:51;;;;;;;13.70;7.80;;;16.20;99.90;;;;;;5035268;28;20456;-78
2023/01/01 01:27:18;;;;;;;9.87;7.00;;;16.10;99.90;;;;;;5035755;28;20455;-79
2023/01/01 01:29:45;;;;;;;9.37;6.07;;;16.10;99.90;;;;;;5035310;28;20459;-79
2023/01/01 01:32:12;;;;;;;10.47;6.43;;;16.10;99.90;;;;;;5035676;28;20472;-77
2023/01/01 01:34:39;;;;;;;13.00;6.87;;;16.10;99.90;;;;;;5036573;28;20464;-79
2023/01/01 01:37:06;;;;;;;10.10;6.37;;;16.10;99.90;;;;;;5016159;28;20466;-78
2023/01/01 01:39:33;;;;;;;10.37;6.80;;;16.10;99.90;;;;;;5015555;28;20553;-78
2023/01/01 01:42:02;;;;;;;9.23;6.33;;;16.10;99.90;;;;;;5015816;28;20501;-79
2023/01/01 01:44:54;;;;;;;8.90;6.60;;;16.10;99.90;;;;;;5015688;28;20448;-78
2023/01/01 01:47:26;;;;;;;9.23;5.53;;;16.10;99.90;;;;;;5015448;28;20461;-78
2023/01/01 01:49:57;;;;;;;7.73;5.70;;;16.10;99.90;;;;;;5015267;28;20793;-78
2023/01/01 01:52:24;;;;;;;9.80;5.90;;;16.10;99.90;;;;;;5017628;28;20479;-79
2023/01/01 01:54:52;;;;;;;9.50;5.50;;;16.00;99.90;;;;;;5017901;28;20692;-79
2023/01/01 01:57:21;;;;;;;9.30;5.20;;;16.00;99.90;;;;;;5036582;28;20827;-78
2023/01/01 01:59:50;;;;;;;10.43;5.70;;;16.00;99.90;;;;;;5043402;28;20447;-78
2023/01/01 02:02:26;;;;;;;9.27;5.20;;;15.90;99.90;;;;;;5042702;28;21003;-78
2023/01/01 02:04:54;;;;;;;5.80;3.97;;;15.90;99.90;;;;;;5034667;28;20456;-77
2023/01/01 02:07:24;;;;;;;6.40;4.00;;;15.90;99.90;;;;;;5035740;28;20957;-78
2023/01/01 02:09:51;;;;;;;8.83;4.57;;;15.90;99.90;;;;;;5035055;28;20467;-79
2023/01/01 02:12:19;;;;;;;6.67;3.80;;;15.90;99.90;;;;;;5037687;28;20476;-77
2023/01/01 02:14:47;;;;;;;5.17;3.37;;;15.90;99.90;;;;;;5035385;28;20959;-78
2023/01/01 02:17:21;;;;;;;6.73;3.30;;;15.90;99.90;;;;;;5014475;28;20459;-78
2023/01/01 02:20:02;;;;;;;6.80;3.60;;;15.90;99.90;;;;;;5014460;28;20440;-77
2023/01/01 02:22:44;;;;;;;4.70;2.80;;;15.80;99.90;;;;;;5016140;28;20495;-78
2023/01/01 02:25:19;;;;;;;4.20;2.70;;;15.80;99.90;;;;;;5019008;28;20455;-79
2023/01/01 02:27:54;;;;;;;6.30;2.30;;;15.80;99.90;;;;;;5034092;28;20433;-79
2023/01/01 02:30:22;;;;;;;5.70;2.30;;;15.70;99.90;;;;;;5034066;28;20485;-78
2023/01/01 02:32:54;;;;;;;5.23;2.00;;;15.70;99.90;;;;;;5020511;28;20445;-79
2023/01/01 02:35:34;;;;;;;4.33;2.00;;;15.70;99.90;;;;;;5014799;28;20440;-79
2023/01/01 02:38:07;;;;;;;7.77;2.27;;;15.70;99.90;;;;;;5013735;28;20443;-79
2023/01/01 02:40:40;;;;;;;3.87;1.90;;;15.70;99.90;;;;;;5015374;28;20471;-78
2023/01/01 02:43:07;;;;;;;9.40;2.70;;;15.70;99.90;;;;;;5028988;28;20452;-80
2023/01/01 02:45:35;;;;;;;5.40;1.40;;;15.60;99.90;;;;;;5034518;28;20455;-79
2023/01/01 02:48:54;;;;;;;4.10;1.90;;;15.70;99.90;;;;;;5033378;28;20452;-75
2023/01/01 02:51:42;;;;;;;5.83;1.90;;;15.60;99.90;;;;;;5018036;28;20503;-79
2023/01/01 02:54:17;;;;;;;5.03;1.63;;;15.60;99.90;;;;;;5022649;28;20846;-79
2023/01/01 02:56:49;;;;;;;2.67;1.40;;;15.60;99.90;;;;;;5023706;28;20443;-78
2023/01/01 03:02:19;;;;;;;3.77;1.57;;;15.60;99.90;;;;;;5038443;28;20994;-79
2023/01/01 03:05:02;;;;;;;5.73;1.80;;;15.60;99.90;;;;;;5039020;28;20442;-81
2023/01/01 03:07:40;;;;;;;4.40;2.00;;;15.50;99.90;;;;;;5039304;28;20443;-80
2023/01/01 03:10:14;;;;;;;7.10;1.73;;;15.50;99.90;;;;;;5030456;28;20960;-80
2023/01/01 03:12:45;;;;;;;4.00;1.23;;;15.50;99.90;;;;;;5019906;28;20436;-80
2023/01/01 03:15:22;;;;;;;3.93;1.30;;;15.50;99.90;;;;;;5020267;28;20434;-79
2023/01/01 03:17:55;;;;;;;4.90;1.77;;;15.50;99.90;;;;;;5034675;28;20445;-78
2023/01/01 03:20:30;;;;;;;5.10;1.33;;;15.50;99.90;;;;;;5039732;28;20443;-79
2023/01/01 03:23:02;;;;;;;4.80;1.60;;;15.50;99.90;;;;;;5038458;28;20476;-79
2023/01/01 03:25:33;;;;;;;3.43;2.03;;;15.50;99.90;;;;;;5039249;28;20452;-79
2023/01/01 03:28:04;;;;;;;2.70;1.23;;;15.50;99.90;;;;;;5021243;28;20442;-78
2023/01/01 03:30:34;;;;;;;3.80;1.30;;;15.40;99.90;;;;;;5018745;28;20481;-78
2023/01/01 03:33:06;;;;;;;2.00;1.20;;;15.40;99.90;;;;;;5018352;28;20448;-80
2023/01/01 03:35:40;;;;;;;5.33;1.20;;;15.40;99.90;;;;;;5019614;28;20556;-80
2023/01/01 03:38:14;;;;;;;5.30;2.00;;;15.30;99.90;;;;;;5035506;28;20458;-80
2023/01/01 03:40:42;;;;;;;9.13;1.47;;;15.20;99.90;;;;;;5037273;28;21168;-79
2023/01/01 03:43:13;;;;;;;2.70;1.30;;;15.30;99.90;;;;;;5038933;28;20476;-80
2023/01/01 03:45:43;;;;;;;4.80;1.57;;;15.30;99.90;;;;;;5039249;28;20890;-78
2023/01/01 03:48:10;;;;;;;2.57;1.30;;;15.30;99.90;;;;;;5018283;28;20546;-81
2023/01/01 03:50:48;;;;;;;4.30;1.50;;;15.40;99.90;;;;;;5019266;28;20472;-80
2023/01/01 03:53:26;;;;;;;5.60;1.40;;;15.40;99.90;;;;;;5018582;28;20440;-80
2023/01/01 03:56:05;;;;;;;3.80;1.50;;;15.40;99.90;;;;;;5017509;28;20442;-80
2023/01/01 03:58:35;;;;;;;3.50;1.30;;;15.50;99.90;;;;;;5017895;28;20451;-80
2023/01/01 04:01:11;;;;;;;4.37;1.40;;;15.40;99.90;;;;;;5017063;28;21101;-78
2023/01/01 04:03:40;;;;;;;4.03;1.40;;;15.40;99.90;;;;;;5012549;28;20443;-77
2023/01/01 04:06:10;;;;;;;5.17;1.57;;;15.40;99.90;;;;;;5017420;28;20450;-80
2023/01/01 04:08:37;;;;;;;4.47;1.40;;;15.20;99.90;;;;;;5038491;28;20479;-77
2023/01/01 04:12:00;;;;;;;5.27;1.20;;;15.30;99.90;;;;;;5048130;28;20488;-80
2023/01/01 04:13:55;;;;;;;3.50;1.40;;;15.30;99.90;;;;;;5037890;28;20480;-80
2023/01/01 04:16:22;;;;;;;5.13;1.60;;;15.40;99.90;;;;;;5034426;28;20462;-79
2023/01/01 04:18:49;;;;;;;3.03;1.40;;;15.40;99.90;;;;;;5017517;28;20450;-80
2023/01/01 04:21:17;;;;;;;3.30;1.33;;;15.30;99.90;;;;;;5017773;28;20476;-79
2023/01/01 04:23:44;;;;;;;3.10;1.27;;;15.20;99.90;;;;;;5016888;28;20519;-79
2023/01/01 04:26:13;;;;;;;3.80;1.00;;;15.10;99.90;;;;;;5018877;28;20466;-79
2023/01/01 04:28:40;;;;;;;4.33;1.77;;;15.10;99.90;;;;;;5036445;28;20464;-79
2023/01/01 04:31:08;;;;;;;2.00;1.00;;;15.10;99.90;;;;;;5037084;28;20499;-79
2023/01/01 04:33:34;;;;;;;3.60;1.90;;;15.20;99.90;;;;;;5036604;28;20455;-79
2023/01/01 04:36:06;;;;;;;4.53;1.50;;;15.20;99.90;;;;;;5036986;28;20856;-80
2023/01/01 04:38:41;;;;;;;6.83;1.90;;;15.20;99.90;;;;;;5016378;28;20454;-80
2023/01/01 04:41:09;;;;;;;5.13;1.37;;;15.30;99.90;;;;;;5016299;28;20826;-78
2023/01/01 04:43:38;;;;;;;3.03;1.13;;;15.30;99.90;;;;;;5013172;28;20453;-78
2023/01/01 04:46:05;;;;;;;3.80;1.30;;;15.30;99.90;;;;;;5015060;28;20465;-79
2023/01/01 04:48:32;;;;;;;4.83;1.37;;;15.30;99.90;;;;;;5017647;28;20483;-81
2023/01/01 04:51:00;;;;;;;4.13;1.63;;;15.30;99.90;;;;;;5017986;28;20539;-82
2023/01/01 04:53:30;;;;;;;7.87;1.43;;;15.30;99.90;;;;;;5017540;28;20453;-82
2023/01/01 04:56:03;;;;;;;5.20;1.30;;;15.30;99.90;;;;;;5017259;28;20457;-83
2023/01/01 04:58:30;;;;;;;3.93;1.60;;;15.30;99.90;;;;;;5037098;28;20455;-81
2023/01/01 05:00:57;;;;;;;5.30;1.40;;;15.30;99.90;;;;;;5037338;28;20636;-83
2023/01/01 05:03:24;;;;;;;2.77;1.10;;;15.40;99.90;;;;;;5038063;28;21290;-82
2023/01/01 05:06:00;;;;;;;3.00;1.30;;;15.40;99.90;;;;;;5036985;28;20472;-83
2023/01/01 05:08:28;;;;;;;5.10;1.77;;;15.30;99.90;;;;;;5018049;28;20448;-82
2023/01/01 05:11:01;;;;;;;4.57;1.50;;;15.30;99.90;;;;;;5017671;28;20482;-80
2023/01/01 05:13:28;;;;;;;3.77;1.73;;;15.30;99.90;;;;;;5017903;28;20583;-82
2023/01/01 05:15:55;;;;;;;2.87;1.57;;;15.30;99.90;;;;;;5017465;28;20895;-82
2023/01/01 05:18:22;;;;;;;4.23;1.80;;;15.20;99.90;;;;;;5035041;28;20848;-81
2023/01/01 05:20:48;;;;;;;3.60;1.47;;;15.30;99.90;;;;;;5037816;28;20475;-81
2023/01/01 05:23:16;;;;;;;5.23;1.50;;;15.30;99.90;;;;;;5037184;28;20487;-82
2023/01/01 05:25:43;;;;;;;4.13;1.23;;;15.20;99.90;;;;;;5037628;28;20460;-82
2023/01/01 05:28:11;;;;;;;3.23;1.50;;;15.10;99.90;;;;;;5024415;28;20455;-80
2023/01/01 05:30:40;;;;;;;4.30;1.37;;;15.10;99.90;;;;;;5019826;28;20904;-79
2023/01/01 05:33:06;;;;;;;10.17;1.60;;;15.10;99.90;;;;;;5018110;28;20448;-78
2023/01/01 05:35:33;;;;;;;6.07;1.90;;;15.00;99.90;;;;;;5016054;28;20459;-80
2023/01/01 05:38:00;;;;;;;2.83;1.23;;;15.00;99.90;;;;;;5029982;28;20877;-79
2023/01/01 05:40:27;;;;;;;3.43;1.27;;;15.00;99.90;;;;;;5035545;28;20477;-80
2023/01/01 05:42:54;;;;;;;3.13;1.37;;;15.10;99.90;;;;;;5035733;28;20492;-79
2023/01/01 05:45:22;;;;;;;8.47;1.97;;;15.00;99.90;;;;;;5039604;28;20816;-80
2023/01/01 05:47:48;;;;;;;7.30;2.47;;;15.10;99.90;;;;;;5024739;28;20468;-80
2023/01/01 05:50:15;;;;;;;2.63;1.13;;;15.00;99.90;;;;;;5023047;28;20456;-80
2023/01/01 05:52:42;;;;;;;5.10;1.57;;;15.00;99.90;;;;;;5038056;28;20607;-80
2023/01/01 05:55:09;;;;;;;3.17;1.40;;;15.00;99.90;;;;;;5039069;28;20547;-80
2023/01/01 05:57:36;;;;;;;4.77;1.30;;;15.10;99.90;;;;;;5029465;28;20475;-81
2023/01/01 06:00:03;;;;;;;2.57;1.03;;;15.00;99.90;;;;;;5032756;28;20492;-80
2023/01/01 06:02:31;;;;;;;4.57;1.30;;;14.80;99.90;;;;;;5037218;28;21035;-79
2023/01/01 06:04:58;;;;;;;3.90;1.40;;;14.70;99.90;;;;;;5033025;28;20950;-80
2023/01/01 06:07:25;;;;;;;4.60;1.40;;;14.70;99.90;;;;;;5032500;28;20457;-80
2023/01/01 06:09:52;;;;;;;4.53;1.30;;;14.60;99.90;;;;;;5022504;28;20445;-79
2023/01/01 06:12:19;;;;;;;5.00;1.80;;;14.70;99.90;;;;;;5028445;23;20592;-79
2023/01/01 06:14:45;;;;;;;2.40;1.23;;;14.60;99.90;;;;;;4998966;28;20445;-80
2023/01/01 06:17:12;;;;;;;4.53;1.70;;;14.40;99.90;;;;;;4996972;28;20449;-79
2023/01/01 06:19:40;;;;;;;4.67;1.40;;;14.10;99.90;;;;;;4997240;28;20450;-79
2023/01/01 06:22:07;;;;;;;4.20;1.30;;;14.00;99.90;;;;;;4997005;28;20489;-79
2023/01/01 06:24:34;;;;;;;6.27;1.50;;;13.90;99.90;;;;;;4997414;28;20833;-78
2023/01/01 06:27:01;;;;;;;2.47;1.30;;;13.90;99.90;;;;;;4997010;28;20847;-79
2023/01/01 06:29:28;;;;;;;4.57;1.53;;;13.90;99.90;;;;;;4995722;28;20519;-79
2023/01/01 06:31:54;;;;;;;2.60;1.30;;;14.00;99.90;;;;;;4997947;28;20488;-79
2023/01/01 06:34:21;;;;;;;9.67;3.20;;;14.20;99.90;;;;;;4999860;28;20519;-80
2023/01/01 06:36:49;;;;;;;4.33;1.40;;;14.30;99.90;;;;;;5000177;28;20549;-80
2023/01/01 06:39:16;;;;;;;6.30;1.93;;;14.50;99.90;;;;;;4991928;28;20992;-80
2023/01/01 06:41:43;;;;;;;4.43;1.60;;;14.50;99.90;;;;;;4998241;28;20465;-79
2023/01/01 06:44:10;;;;;;;7.37;1.80;;;14.60;99.90;;;;;;4997518;28;20455;-80
2023/01/01 06:46:37;;;;;;;7.30;1.67;;;14.70;99.90;;;;;;5002713;28;20538;-80
2023/01/01 06:49:06;;;;;;;4.40;1.40;;;14.70;99.90;;;;;;4997679;28;20545;-80
2023/01/01 06:51:34;;;;;;;4.50;1.70;;;14.80;99.90;;;;;;4997248;28;20497;-79
2023/01/01 06:54:03;;;;;;;3.40;1.43;;;14.80;99.90;;;;;;4997070;28;20955;-80
2023/01/01 06:56:31;;;;;;;4.77;1.37;;;14.80;99.90;;;;;;4997758;28;20878;-80
2023/01/01 06:58:59;;;;;;;5.20;1.50;;;14.90;99.90;;;;;;4996519;28;20473;-81
2023/01/01 07:01:27;;;;;;;9.50;1.40;;;14.80;99.90;;;;;;4997962;28;20480;-80
2023/01/01 07:03:56;;;;;;;6.47;1.90;;;14.60;99.90;;;;;;4996670;28;20599;-79
2023/01/01 07:06:23;;;;;;;3.07;1.33;;;14.50;99.90;;;;;;4996676;28;20962;-80
2023/01/01 07:08:51;;;;;;;3.83;1.70;;;14.30;99.90;;;;;;4995390;28;20464;-79
2023/01/01 07:11:19;;;;;;;5.03;1.70;;;14.10;99.90;;;;;;4996752;28;20878;-80
2023/01/01 07:13:46;;;;;;;3.47;1.60;;;14.10;99.90;;;;;;4996599;28;20461;-81
2023/01/01 07:16:13;;;;;;;3.93;1.00;;;13.90;99.90;;;;;;4996867;28;20541;-81
2023/01/01 07:18:40;;;;;;;4.27;1.30;;;13.90;99.90;;;;;;4995954;28;20457;-78
2023/01/01 07:21:25;;;;;;;7.50;2.10;;;13.90;99.90;;;;;;5000257;28;20546;-78
2023/01/01 07:23:55;;;;;;;4.60;1.80;;;14.00;99.90;;;;;;5004696;28;20518;-79
2023/01/01 07:26:23;;;;;;;5.77;1.80;;;14.00;99.90;;;;;;5003356;28;20455;-78
2023/01/01 07:28:50;;;;;;;2.93;1.40;;;14.20;99.90;;;;;;5004419;28;20450;-79
2023/01/01 07:31:17;;;;;;;5.60;1.90;;;14.30;99.90;;;;;;5000638;28;20573;-78
2023/01/01 07:33:44;;;;;;;3.20;1.47;;;14.30;99.90;;;;;;4995553;28;20455;-78
2023/01/01 07:36:11;;;;;;;3.40;1.30;;;14.40;99.90;;;;;;4995205;28;20464;-78
2023/01/01 07:38:37;;;;;;;5.90;1.23;;;14.30;99.90;;;;;;4994375;28;20977;-79
2023/01/01 07:41:05;;;;;;;4.17;1.50;;;14.20;99.90;;;;;;4994438;28;20476;-78
2023/01/01 07:43:33;;;;;;;6.60;1.73;;;13.90;99.90;;;;;;4994863;28;20479;-79
2023/01/01 07:46:00;;;;;;;4.30;1.67;;;13.70;99.90;;;;;;5005907;28;20531;-78
2023/01/01 07:48:27;;;;;;;4.13;1.77;;;13.60;99.90;;;;;;4997049;28;20493;-78
2023/01/01 07:50:54;;;;;;;4.23;1.40;;;13.50;99.90;;;;;;4993896;28;21022;-78
2023/01/01 07:53:21;;;;;;;2.87;1.70;;;13.30;99.90;;;;;;4994793;28;20453;-78
2023/01/01 07:55:48;;;;;;;4.70;1.80;;;13.20;99.90;;;;;;4994029;28;20915;-79
2023/01/01 07:58:15;;;;;;;9.07;1.70;;;13.10;99.90;;;;;;4992806;28;20468;-79
2023/01/01 08:00:47;;;;;;;8.23;2.63;;;13.00;99.90;;;;;;4994973;28;20503;-79
2023/01/01 08:03:14;;;;;;;5.13;1.90;;;12.90;99.90;;;;;;4994796;28;20484;-79
2023/01/01 08:05:41;;;;;;;4.50;1.87;;;12.70;99.90;;;;;;4993670;28;20978;-80
2023/01/01 08:08:08;;;;;;;3.70;1.50;;;12.70;99.90;;;;;;4991358;28;21008;-80
2023/01/01 08:10:35;;;;;;;4.03;1.53;;;12.70;99.90;;;;;;4994057;28;20906;-81
2023/01/01 08:13:02;;;;;;;3.90;1.83;;;12.60;99.90;;;;;;4994334;28;20567;-80
2023/01/01 08:15:31;;;;;;;2.90;1.60;;;12.60;99.90;;;;;;4993977;28;20962;-79
2023/01/01 08:18:01;;;;;;;3.57;1.63;;;12.70;99.90;;;;;;4996655;28;20470;-81
2023/01/01 08:20:30;;;;;;;3.80;1.60;;;12.60;99.90;;;;;;5003167;28;20454;-81
2023/01/01 08:22:57;;;;;;;3.23;1.60;;;12.60;99.90;;;;;;5001698;28;20501;-81
2023/01/01 08:25:23;;;;;;;5.17;1.60;;;12.60;99.90;;;;;;4996964;28;20468;-81
2023/01/01 08:27:50;;;;;;;2.97;1.30;;;12.60;99.90;;;;;;4994610;28;20566;-81
2023/01/01 08:30:17;;;;;;;3.67;1.80;;;12.60;99.90;;;;;;4994847;28;20546;-79
2023/01/01 08:32:44;;;;;;;4.10;1.93;;;12.60;99.90;;;;;;4994008;28;20560;-81
2023/01/01 08:35:12;;;;;;;5.27;2.10;;;12.60;99.90;;;;;;4993825;28;20467;-80
2023/01/01 08:37:39;;;;;;;7.77;1.73;;;12.70;99.90;;;;;;4993805;28;20966;-80
2023/01/01 08:40:07;;;;;;;3.60;2.00;;;12.70;99.90;;;;;;4993641;28;20471;-79
2023/01/01 08:42:34;;;;;;;7.03;1.73;;;12.90;99.90;;;;;;4996325;28;20481;-80
2023/01/01 08:45:01;;;;;;;5.20;1.90;;;13.20;99.90;;;;;;5003374;28;20537;-79
2023/01/01 08:47:28;;;;;;;4.30;1.60;;;13.30;99.90;;;;;;5006493;28;20552;-79
2023/01/01 08:49:55;;;;;;;4.33;1.70;;;13.50;99.90;;;;;;5006111;28;20476;-79
2023/01/01 08:52:23;;;;;;;5.00;2.00;;;13.60;99.90;;;;;;4997868;28;20579;-79
2023/01/01 08:54:50;;;;;;;7.43;2.07;;;13.70;99.90;;;;;;4996677;28;20491;-80
2023/01/01 08:57:17;;;;;;;6.40;1.87;;;13.90;99.90;;;;;;4994929;28;20466;-79
2023/01/01 08:59:43;;;;;;;4.50;2.33;;;13.90;99.90;;;;;;4992811;28;20473;-80
2023/01/01 09:02:11;;;;;;;17.60;11.20;;;13.90;99.90;;;;;;4993323;28;20475;-80
2023/01/01 09:04:38;;;;;;;30.63;20.73;;;14.00;99.90;;;;;;4993060;28;21201;-81
2023/01/01 09:07:05;;;;;;;18.47;11.40;;;14.00;99.90;;;;;;4994152;28;20464;-81
2023/01/01 09:09:33;;;;;;;10.43;3.43;;;14.10;99.90;;;;;;4993774;28;20451;-80
2023/01/01 09:12:04;;;;;;;4.60;2.70;;;14.10;99.90;;;;;;4993546;28;20486;-79
2023/01/01 09:14:32;;;;;;;6.33;2.10;;;14.20;99.90;;;;;;4993619;28;20560;-79
2023/01/01 09:17:00;;;;;;;6.23;1.80;;;14.20;99.90;;;;;;4996706;28;20536;-80
2023/01/01 09:19:27;;;;;;;4.93;2.17;;;14.20;99.90;;;;;;4998392;28;20486;-80
2023/01/01 09:21:54;;;;;;;6.70;3.30;;;14.30;99.90;;;;;;5000383;28;21080;-79
2023/01/01 09:24:21;;;;;;;6.07;1.83;;;14.30;99.90;;;;;;5001437;28;20479;-80
2023/01/01 09:26:49;;;;;;;8.27;3.53;;;14.30;99.90;;;;;;5001975;28;20526;-80
2023/01/01 09:29:19;;;;;;;2.43;1.60;;;14.30;99.90;;;;;;5000460;28;20453;-80
2023/01/01 09:31:46;;;;;;;3.97;2.03;;;14.40;99.90;;;;;;5001184;28;20483;-80
2023/01/01 09:34:14;;;;;;;5.40;1.43;;;14.40;99.90;;;;;;5001118;28;20986;-80
2023/01/01 09:36:41;;;;;;;5.37;1.97;;;14.40;99.90;;;;;;5002203;28;20490;-80
2023/01/01 09:39:07;;;;;;;3.20;1.60;;;14.40;99.90;;;;;;5001688;28;20526;-80
2023/01/01 09:42:02;;;;;;;6.37;2.13;;;14.50;99.90;;;;;;5002074;28;20492;-80
2023/01/01 09:44:55;;;;;;;4.23;1.60;;;14.50;99.90;;;;;;5001479;28;20550;-80
2023/01/01 09:47:26;;;;;;;6.43;2.07;;;14.50;99.90;;;;;;5001929;28;20493;-81
2023/01/01 09:49:56;;;;;;;3.67;1.87;;;14.60;99.90;;;;;;5001417;28;20886;-80
2023/01/01 09:52:27;;;;;;;4.30;1.67;;;14.60;99.90;;;;;;5003701;28;20475;-79
2023/01/01 09:54:58;;;;;;;4.53;1.53;;;14.60;99.90;;;;;;5014301;28;20441;-79
2023/01/01 09:57:29;;;;;;;4.00;1.90;;;14.50;99.90;;;;;;5013758;28;20534;-80
2023/01/01 09:59:57;;;;;;;5.97;1.77;;;14.60;99.90;;;;;;5011391;28;20518;-80
2023/01/01 10:02:39;;;;;;;8.20;1.50;;;14.60;99.90;;;;;;5003985;28;20474;-80
2023/01/01 10:05:26;;;;;;;5.27;2.00;;;14.60;99.90;;;;;;5002867;28;20586;-79
2023/01/01 10:07:59;;;;;;;4.93;2.03;;;14.60;99.90;;;;;;5001692;28;20448;-78
2023/01/01 10:10:37;;;;;;;2.87;1.50;;;14.60;99.90;;;;;;5001718;28;20446;-80
2023/01/01 10:13:14;;;;;;;7.20;1.60;;;14.50;99.90;;;;;;4987397;28;20462;-80
2023/01/01 10:15:45;;;;;;;6.67;1.83;;;14.50;99.90;;;;;;4999548;28;20501;-79
2023/01/01 10:18:17;;;;;;;5.80;2.03;;;14.50;99.90;;;;;;4999092;28;20554;-80
2023/01/01 10:20:47;;;;;;;7.77;2.10;;;14.60;99.90;;;;;;5000998;28;20982;-80
2023/01/01 10:23:20;;;;;;;4.10;1.70;;;14.60;99.90;;;;;;4998342;28;20489;-80
2023/01/01 10:25:47;;;;;;;5.70;1.57;;;14.60;99.90;;;;;;4998432;28;20466;-80
2023/01/01 10:28:23;;;;;;;3.90;1.70;;;14.60;99.90;;;;;;4998325;28;20971;-80
2023/01/01 10:30:53;;;;;;;3.23;1.67;;;14.60;99.90;;;;;;4998678;28;20853;-80
2023/01/01 10:33:20;;;;;;;3.93;1.70;;;14.70;99.90;;;;;;5000262;28;20460;-79
2023/01/01 10:35:49;;;;;;;6.40;1.77;;;14.70;99.90;;;;;;5001330;28;20527;-79
2023/01/01 10:38:22;;;;;;;4.20;2.00;;;14.70;99.90;;;;;;5003765;28;20457;-79
2023/01/01 10:40:49;;;;;;;6.13;2.10;;;14.70;99.90;;;;;;5004684;28;20450;-79
2023/01/01 10:43:18;;;;;;;8.23;2.20;;;14.70;99.90;;;;;;5003787;28;20463;-80
2023/01/01 10:45:50;;;;;;;16.77;8.03;;;14.80;99.90;;;;;;5002251;28;20485;-81
2023/01/01 10:48:19;;;;;;;5.03;1.70;;;14.70;99.90;;;;;;5001344;28;20458;-80
2023/01/01 10:50:50;;;;;;;6.53;2.90;;;14.70;99.90;;;;;;4999154;28;20484;-81
2023/01/01 10:53:24;;;;;;;4.03;2.17;;;14.70;99.90;;;;;;4999492;28;20470;-82
2023/01/01 10:55:57;;;;;;;5.30;2.20;;;14.70;99.90;;;;;;4998961;28;20517;-81
2023/01/01 10:58:36;;;;;;;3.30;1.43;;;14.70;99.90;;;;;;4998744;28;20478;-81
2023/01/01 11:01:04;;;;;;;5.60;2.33;;;14.70;99.90;;;;;;4996885;28;20557;-81
2023/01/01 11:03:32;;;;;;;5.13;1.50;;;14.80;99.90;;;;;;4998401;28;20486;-81
2023/01/01 11:06:05;;;;;;;6.10;2.07;;;15.00;99.90;;;;;;4998906;28;20468;-81
2023/01/01 11:08:35;;;;;;;4.93;1.80;;;15.00;99.90;;;;;;4996551;28;20491;-80
2023/01/01 11:11:03;;;;;;;5.07;1.60;;;15.10;99.90;;;;;;4995126;28;20489;-80
2023/01/01 11:13:34;;;;;;;8.83;1.83;;;15.20;99.90;;;;;;4990734;28;20448;-79
2023/01/01 11:16:01;;;;;;;3.73;1.47;;;15.20;99.90;;;;;;4993346;28;20462;-80
2023/01/01 11:18:34;;;;;;;4.60;1.90;;;15.20;99.90;;;;;;4996930;28;20837;-81
2023/01/01 11:21:03;;;;;;;3.60;1.70;;;15.20;99.90;;;;;;4996685;28;20476;-80
2023/01/01 11:23:32;;;;;;;4.90;1.77;;;15.30;99.90;;;;;;4997929;28;20463;-80
2023/01/01 11:26:02;;;;;;;6.33;2.17;;;15.40;99.90;;;;;;4997037;28;20521;-80
2023/01/01 11:28:33;;;;;;;4.23;1.93;;;15.50;99.90;;;;;;4998541;28;20530;-79
2023/01/01 11:31:10;;;;;;;8.10;2.20;;;15.60;99.90;;;;;;4996104;28;20511;-82
2023/01/01 11:33:43;;;;;;;5.07;1.97;;;15.70;99.90;;;;;;4999033;28;20657;-80
2023/01/01 11:36:10;;;;;;;5.83;1.80;;;15.60;99.90;;;;;;4999351;28;20451;-81
2023/01/01 11:38:37;;;;;;;6.03;1.90;;;15.70;99.90;;;;;;4998382;28;20457;-82
2023/01/01 11:41:06;;;;;;;4.00;1.60;;;15.60;99.90;;;;;;4998302;28;20501;-81
2023/01/01 11:43:41;;;;;;;4.87;1.67;;;15.60;99.90;;;;;;4999479;28;20467;-82
2023/01/01 11:46:10;;;;;;;5.70;1.90;;;15.60;99.90;;;;;;4998747;28;20829;-81
2023/01/01 11:48:42;;;;;;;5.53;2.07;;;15.60;99.90;;;;;;4999196;28;20458;-82
2023/01/01 11:51:11;;;;;;;3.90;1.90;;;15.70;99.90;;;;;;4981144;28;20481;-82
2023/01/01 11:53:40;;;;;;;9.37;1.93;;;15.70;99.90;;;;;;5004342;28;20469;-82
2023/01/01 11:56:14;;;;;;;4.43;1.70;;;15.70;99.90;;;;;;5014823;28;20454;-82
2023/01/01 11:58:51;;;;;;;3.57;1.53;;;15.50;99.90;;;;;;5010119;28;20481;-79
2023/01/01 12:01:26;;;;;;;9.90;2.17;;;15.60;99.90;;;;;;5011863;28;20548;-80
2023/01/01 12:03:57;;;;;;;7.90;2.20;;;15.50;99.90;;;;;;5012101;28;20532;-80
2023/01/01 12:06:32;;;;;;;6.10;1.70;;;15.50;99.90;;;;;;5005142;28;20486;-80
2023/01/01 12:09:06;;;;;;;5.73;1.73;;;15.30;99.90;;;;;;4998275;28;20457;-81
2023/01/01 12:11:41;;;;;;;6.13;2.10;;;15.30;99.90;;;;;;4999185;28;20484;-80
2023/01/01 12:14:22;;;;;;;4.60;2.03;;;15.30;99.90;;;;;;4999216;28;20931;-79
2023/01/01 12:16:55;;;;;;;5.47;1.50;;;15.30;99.90;;;;;;5025411;23;20559;-82
2023/01/01 12:19:25;;;;;;;5.33;1.87;;;15.30;99.90;;;;;;5035022;28;20539;-81
2023/01/01 12:21:57;;;;;;;6.60;1.63;;;15.20;99.90;;;;;;5028514;28;20455;-84
2023/01/01 12:24:28;;;;;;;3.57;1.63;;;15.30;99.90;;;;;;5021322;28;20473;-84
2023/01/01 12:27:09;;;;;;;3.60;1.73;;;15.20;99.90;;;;;;5036361;28;20888;-85
2023/01/01 12:30:03;;;;;;;6.87;2.70;;;15.30;99.90;;;;;;5036671;28;21033;-83
2023/01/01 12:32:47;;;;;;;8.30;2.33;;;15.40;99.90;;;;;;5036156;28;20443;-82
2023/01/01 12:35:25;;;;;;;9.40;3.17;;;15.40;99.90;;;;;;5021055;28;20508;-82
2023/01/01 12:38:01;;;;;;;7.23;1.77;;;15.30;99.90;;;;;;4995393;28;20481;-82
2023/01/01 12:40:53;;;;;;;4.57;2.70;;;15.20;99.90;;;;;;5010063;28;20810;-83
2023/01/01 12:43:26;;;;;;;6.63;1.63;;;15.30;99.90;;;;;;5012403;28;20532;-82
2023/01/01 12:46:14;;;;;;;10.40;2.30;;;15.20;99.90;;;;;;5019538;28;20485;-82
2023/01/01 12:49:10;;;;;;;5.23;1.67;;;15.20;99.90;;;;;;5035487;28;20468;-83
2023/01/01 12:51:49;;;;;;;4.67;1.80;;;15.20;99.90;;;;;;5009044;28;20460;-80
2023/01/01 12:54:40;;;;;;;4.83;1.80;;;15.30;99.90;;;;;;5010473;28;20463;-83
2023/01/01 12:57:12;;;;;;;8.10;2.20;;;15.20;99.90;;;;;;5015347;28;20484;-83
2023/01/01 12:59:45;;;;;;;5.30;2.23;;;15.20;99.90;;;;;;5035339;28;20438;-84
2023/01/01 13:02:18;;;;;;;11.40;2.60;;;15.10;99.90;;;;;;5034368;28;20456;-83
2023/01/01 13:04:47;;;;;;;3.90;1.57;;;15.10;99.90;;;;;;5014949;28;20488;-82